Austin, Arkansas
Current Conditions -  °F | °C
As of 9:58 PM on Friday 24 Oct 2014 (Local Time) from KLRF Reporting Station
Clear Clear  
Wind Chill: 58°   Ceiling: Unl
Heat Index: 58°   Visibility: 10mi
Dew Point: 55°   Wind: 0mph
Humidity: 89%   Direction: NA
Pressure: 30.1"   Gusts: NA
Location:  35°N, 91.98°W
Report Text: KLRF 250258Z AUTO 00000KT 10SM CLR 15/13 A3010 RMK AO2 SLP195 T01470129 52004
Loading
Personal Weather Stations






























Interactive Weather Map
Tropical Storm Tracking
New forecast layout! Learn more

10-Day Weather Forecast

Advertisements
Track Severe Weather on mobile